createdAt,value
2018-02-15T00:02:05.713Z,10.48
2018-02-15T00:04:34.810Z,12.05
2018-02-15T00:07:03.126Z,13.32
2018-02-15T00:09:31.439Z,11.73
2018-02-15T00:11:59.733Z,13.80
2018-02-15T00:14:28.054Z,12.35
2018-02-15T00:16:56.362Z,11.95
2018-02-15T00:19:24.678Z,12.48
2018-02-15T00:21:53.012Z,13.98
2018-02-15T00:24:21.348Z,12.37
2018-02-15T00:26:49.649Z,11.90
2018-02-15T00:29:17.974Z,13.25
2018-02-15T00:31:46.302Z,13.35
2018-02-15T00:34:14.881Z,11.98
2018-02-15T00:36:43.954Z,11.90
2018-02-15T00:39:16.360Z,14.27
2018-02-15T00:41:45.535Z,13.75
2018-02-15T00:44:13.924Z,13.18
2018-02-15T00:46:42.271Z,13.40
2018-02-15T00:49:11.386Z,13.52
2018-02-15T00:51:39.711Z,14.07
2018-02-15T00:54:08.007Z,15.18
2018-02-15T00:56:36.349Z,15.13
2018-02-15T00:59:04.656Z,15.65
2018-02-15T01:01:33.007Z,12.80
2018-02-15T01:04:01.670Z,13.55
2018-02-15T01:06:30.019Z,14.65
2018-02-15T01:08:58.332Z,16.20
2018-02-15T01:11:26.630Z,14.55
2018-02-15T01:13:55.017Z,14.60
2018-02-15T01:16:23.327Z,14.95
2018-02-15T01:18:51.650Z,14.55
2018-02-15T01:21:20.746Z,13.35
2018-02-15T01:23:49.070Z,14.75
2018-02-15T01:26:22.377Z,11.70
2018-02-15T01:28:50.734Z,11.73
2018-02-15T01:31:19.019Z,11.80
2018-02-15T01:33:50.600Z,14.75
2018-02-15T01:36:19.710Z,12.93
2018-02-15T01:38:48.089Z,13.00
2018-02-15T01:41:16.411Z,13.93
2018-02-15T01:43:46.717Z,15.13
2018-02-15T01:46:15.808Z,11.55
2018-02-15T01:48:44.090Z,13.80
2018-02-15T01:51:12.402Z,14.50
2018-02-15T01:53:41.463Z,14.43
2018-02-15T01:56:09.859Z,15.90
2018-02-15T01:58:38.150Z,13.20
2018-02-15T02:01:06.495Z,15.95
2018-02-15T02:03:34.791Z,15.95
2018-02-15T02:06:03.106Z,13.65
2018-02-15T02:08:33.390Z,15.93
2018-02-15T02:11:02.498Z,13.50
2018-02-15T02:13:31.561Z,14.87
2018-02-15T02:15:59.854Z,15.18
2018-02-15T02:18:28.174Z,15.75
2018-02-15T02:20:57.234Z,16.25
2018-02-15T02:23:25.588Z,15.48
2018-02-15T02:25:54.659Z,16.20
2018-02-15T02:28:23.222Z,14.57
2018-02-15T02:30:51.510Z,13.93
2018-02-15T02:33:25.178Z,14.98
2018-02-15T02:35:53.497Z,14.25
2018-02-15T02:38:21.807Z,13.98
2018-02-15T02:40:51.334Z,12.68
2018-02-15T02:43:19.623Z,14.73
2018-02-15T02:45:47.936Z,13.52
2018-02-15T02:48:16.271Z,14.13
2018-02-15T02:50:44.595Z,13.07
2018-02-15T02:53:12.931Z,13.30
2018-02-15T02:55:41.245Z,13.00
2018-02-15T02:58:09.576Z,10.95
2018-02-15T03:00:38.720Z,12.88
2018-02-15T03:03:07.806Z,14.50
2018-02-15T03:05:36.906Z,15.25
2018-02-15T03:08:05.230Z,14.15
2018-02-15T03:10:33.601Z,14.43
2018-02-15T03:13:02.716Z,13.77
2018-02-15T03:15:31.814Z,15.38
2018-02-15T03:18:00.888Z,15.77
2018-02-15T03:20:29.267Z,14.18
2018-02-15T03:22:57.581Z,16.05
2018-02-15T03:25:25.891Z,15.20
2018-02-15T03:27:54.978Z,16.87
2018-02-15T03:30:23.279Z,16.95
2018-02-15T03:32:51.799Z,14.48
2018-02-15T03:35:20.098Z,14.20
2018-02-15T03:37:48.424Z,13.65
2018-02-15T03:40:17.737Z,11.85
2018-02-15T03:42:46.038Z,14.75
2018-02-15T03:45:14.395Z,13.70
2018-02-15T03:47:42.726Z,13.52
2018-02-15T03:50:11.117Z,15.50
2018-02-15T03:52:40.196Z,12.95
2018-02-15T03:55:08.655Z,13.20
2018-02-15T03:57:41.518Z,13.10
2018-02-15T04:00:09.867Z,13.80
2018-02-15T04:02:38.171Z,11.65
2018-02-15T04:05:06.474Z,12.57
2018-02-15T04:07:34.755Z,13.13
2018-02-15T04:10:06.846Z,14.07
2018-02-15T04:12:35.159Z,14.10
2018-02-15T04:15:04.254Z,12.68
2018-02-15T04:17:33.306Z,11.93
2018-02-15T04:20:01.662Z,13.48
2018-02-15T04:22:30.729Z,14.18
2018-02-15T04:24:59.086Z,13.25
2018-02-15T04:27:27.370Z,13.85
2018-02-15T04:29:55.680Z,13.35
2018-02-15T04:32:24.012Z,12.15
2018-02-15T04:34:52.454Z,13.50
2018-02-15T04:37:20.756Z,13.13
2018-02-15T04:39:49.086Z,13.60
2018-02-15T04:42:18.136Z,13.13
2018-02-15T04:44:46.476Z,12.48
2018-02-15T04:47:15.850Z,13.77
2018-02-15T04:49:44.152Z,12.25
2018-02-15T04:52:12.456Z,11.18
2018-02-15T04:54:49.414Z,12.00
2018-02-15T04:57:17.737Z,12.20
2018-02-15T04:59:46.053Z,12.05
2018-02-15T05:02:15.200Z,14.23
2018-02-15T05:04:43.488Z,15.98
2018-02-15T05:07:11.809Z,13.45
2018-02-15T05:09:40.086Z,14.52
2018-02-15T05:12:08.429Z,14.43
2018-02-15T05:14:37.506Z,14.75
2018-02-15T05:17:05.802Z,15.07
2018-02-15T05:19:34.882Z,14.45
2018-02-15T05:22:03.174Z,15.45
2018-02-15T05:24:31.764Z,14.85
2018-02-15T05:27:00.049Z,15.18
2018-02-15T05:29:28.341Z,16.05
2018-02-15T05:31:56.721Z,13.80
2018-02-15T05:34:25.148Z,12.77
2018-02-15T05:36:53.475Z,14.57
2018-02-15T05:39:21.832Z,15.38
2018-02-15T05:41:50.906Z,15.90
2018-02-15T05:44:19.233Z,15.68
2018-02-15T05:46:48.546Z,13.65
2018-02-15T05:49:16.888Z,10.55
2018-02-15T05:51:45.248Z,13.90
2018-02-15T05:54:13.604Z,13.55
2018-02-15T05:56:42.706Z,13.55
2018-02-15T05:59:11.005Z,15.00
2018-02-15T06:01:39.672Z,10.77
2018-02-15T06:04:07.967Z,12.27
2018-02-15T06:06:36.286Z,13.25
2018-02-15T06:09:05.444Z,11.88
2018-02-15T06:11:33.777Z,12.90
2018-02-15T06:14:02.906Z,14.20
2018-02-15T06:16:46.170Z,12.63
2018-02-15T06:19:14.631Z,15.13
2018-02-15T06:21:42.964Z,12.50
2018-02-15T06:24:22.471Z,13.25
2018-02-15T06:26:50.777Z,13.02
2018-02-15T06:29:19.115Z,12.95
2018-02-15T06:31:54.551Z,13.88
2018-02-15T06:34:22.875Z,13.13
2018-02-15T06:37:21.490Z,13.82
2018-02-15T06:40:21.380Z,12.05
2018-02-15T06:42:50.073Z,11.90
2018-02-15T06:45:18.382Z,11.90
2018-02-15T06:47:46.675Z,11.88
2018-02-15T06:50:23.248Z,11.82
2018-02-15T06:52:51.579Z,12.00
2018-02-15T06:55:20.936Z,12.20
2018-02-15T06:57:49.291Z,11.77
2018-02-15T07:00:30.258Z,8.20
2018-02-15T07:02:58.866Z,10.40
2018-02-15T07:05:27.185Z,11.77
2018-02-15T07:07:55.491Z,12.25
2018-02-15T07:10:23.838Z,11.88
2018-02-15T07:12:52.196Z,11.38
2018-02-15T07:15:20.788Z,10.52
2018-02-15T07:17:49.882Z,11.98
2018-02-15T07:20:18.216Z,11.27
2018-02-15T07:22:46.530Z,9.68
2018-02-15T07:25:16.459Z,13.32
2018-02-15T07:27:44.778Z,10.65
2018-02-15T07:30:24.367Z,7.87
2018-02-15T07:32:53.446Z,11.25
2018-02-15T07:35:21.985Z,9.40
2018-02-15T07:37:50.339Z,9.60
2018-02-15T07:40:22.368Z,12.48
2018-02-15T07:42:50.691Z,9.20
2018-02-15T07:45:19.028Z,9.77
2018-02-15T07:47:47.363Z,10.05
2018-02-15T07:50:21.315Z,8.93
2018-02-15T07:52:49.660Z,9.60
2018-02-15T07:55:17.989Z,14.50
2018-02-15T07:57:46.305Z,11.00
2018-02-15T08:00:14.661Z,10.57
2018-02-15T08:02:50.782Z,9.75
2018-02-15T08:05:19.109Z,9.45
2018-02-15T08:07:48.406Z,10.30
2018-02-15T08:10:16.708Z,9.50
2018-02-15T08:12:45.076Z,9.77
2018-02-15T08:15:14.293Z,9.80
2018-02-15T08:17:42.693Z,9.05
2018-02-15T08:20:19.052Z,4.68
2018-02-15T08:22:48.610Z,8.05
2018-02-15T08:25:27.683Z,6.93
2018-02-15T08:27:56.552Z,8.45
2018-02-15T08:30:24.877Z,8.77
2018-02-15T08:32:53.177Z,6.87
2018-02-15T08:38:18.835Z,10.40
2018-02-15T08:40:54.330Z,8.02
2018-02-15T08:43:22.620Z,7.30
2018-02-15T08:48:38.727Z,8.18
2018-02-15T08:51:07.293Z,6.90
2018-02-15T08:53:36.342Z,7.90
2018-02-15T08:56:04.699Z,7.57
2018-02-15T08:58:33.046Z,8.88
2018-02-15T09:01:01.370Z,7.57
2018-02-15T09:03:29.664Z,7.78
2018-02-15T09:05:57.983Z,9.75
2018-02-15T09:08:26.285Z,8.82
2018-02-15T09:10:54.634Z,7.68
2018-02-15T09:16:24.024Z,8.77
2018-02-15T09:18:52.321Z,8.02
2018-02-15T09:21:21.628Z,8.85
2018-02-15T09:23:50.219Z,7.85
2018-02-15T09:28:53.470Z,10.07
2018-02-15T09:31:21.817Z,6.90
2018-02-15T09:33:50.294Z,8.35
2018-02-15T09:36:18.592Z,9.32
2018-02-15T09:38:50.330Z,10.27
2018-02-15T09:41:18.685Z,8.30
2018-02-15T09:43:47.010Z,8.82
2018-02-15T09:46:22.729Z,8.77
2018-02-15T09:48:51.023Z,8.18
2018-02-15T09:51:19.312Z,10.60
2018-02-15T09:53:47.776Z,10.02
2018-02-15T09:56:16.081Z,8.77
2018-02-15T09:58:44.368Z,10.00
2018-02-15T10:04:12.924Z,9.13
2018-02-15T10:06:55.635Z,9.00
2018-02-15T10:09:23.941Z,8.30
2018-02-15T10:11:52.239Z,10.38
2018-02-15T10:14:21.350Z,7.65
2018-02-15T10:16:52.996Z,10.15
2018-02-15T10:19:21.417Z,9.50
2018-02-15T10:21:56.251Z,9.65
2018-02-15T10:24:24.599Z,8.00
2018-02-15T10:27:21.749Z,10.52
2018-02-15T10:29:50.226Z,8.55
2018-02-15T10:32:22.417Z,8.63
2018-02-15T10:34:50.813Z,8.30
2018-02-15T10:37:19.154Z,7.53
2018-02-15T10:39:47.494Z,8.48
2018-02-15T10:42:22.173Z,7.37
2018-02-15T10:44:50.920Z,8.63
2018-02-15T10:47:19.259Z,9.45
2018-02-15T10:49:47.644Z,8.15
2018-02-15T10:52:15.964Z,8.10
2018-02-15T10:54:44.422Z,8.52
2018-02-15T10:57:12.708Z,8.65
2018-02-15T10:59:40.998Z,7.60
2018-02-15T11:02:23.771Z,8.13
2018-02-15T11:07:47.138Z,7.78
2018-02-15T11:10:15.429Z,8.48
2018-02-15T11:12:43.767Z,8.27
2018-02-15T11:15:12.054Z,9.32
2018-02-15T11:17:40.470Z,8.43
2018-02-15T11:20:08.795Z,6.87
2018-02-15T11:22:37.098Z,9.40
2018-02-15T11:25:05.424Z,7.78
2018-02-15T11:27:34.102Z,7.00
2018-02-15T11:30:02.644Z,9.48
2018-02-15T11:32:30.985Z,8.20
2018-02-15T11:35:00.134Z,7.87
2018-02-15T11:37:28.498Z,10.50
2018-02-15T11:40:22.276Z,8.75
2018-02-15T11:42:51.366Z,9.30
2018-02-15T11:48:13.080Z,10.00
2018-02-15T11:50:41.373Z,9.40
2018-02-15T11:59:19.803Z,9.02
2018-02-15T12:02:00.850Z,8.93
2018-02-15T12:04:29.379Z,8.20
2018-02-15T12:06:57.710Z,8.90
2018-02-15T12:12:35.607Z,7.82
2018-02-15T12:18:19.887Z,7.05
2018-02-15T12:20:52.529Z,9.13
2018-02-15T12:23:27.394Z,8.98
2018-02-15T12:29:06.500Z,10.73
2018-02-15T12:31:34.803Z,9.43
2018-02-15T12:34:03.120Z,11.35
2018-02-15T12:36:31.606Z,10.00
2018-02-15T12:38:59.916Z,10.15
2018-02-15T12:45:07.983Z,10.05
2018-02-15T12:47:36.378Z,9.93
2018-02-15T12:50:04.760Z,9.00
2018-02-15T12:55:16.316Z,8.95
2018-02-15T12:57:53.312Z,10.03
2018-02-15T13:03:06.296Z,9.60
2018-02-15T13:05:34.611Z,8.23
2018-02-15T13:08:02.958Z,8.95
2018-02-15T13:10:34.440Z,11.40
2018-02-15T13:16:21.556Z,9.82
2018-02-15T13:19:14.097Z,10.40
2018-02-15T13:21:51.071Z,9.75
2018-02-15T13:24:22.500Z,10.40
2018-02-15T13:29:52.654Z,9.00
2018-02-15T13:32:22.164Z,10.30
2018-02-15T13:37:49.892Z,11.23
2018-02-15T13:40:19.462Z,12.60
2018-02-15T13:42:47.770Z,10.30
2018-02-15T13:48:40.484Z,11.65
2018-02-15T13:54:08.391Z,12.05
2018-02-15T14:02:46.543Z,13.18
2018-02-15T14:05:14.912Z,13.40
2018-02-15T14:07:43.234Z,12.23
2018-02-15T14:10:11.618Z,14.68
2018-02-15T14:12:39.947Z,12.52
2018-02-15T14:15:08.329Z,13.73
2018-02-15T14:17:42.470Z,13.45
2018-02-15T14:20:40.829Z,15.02
2018-02-15T14:23:09.924Z,15.00
2018-02-15T14:25:38.317Z,14.80
2018-02-15T14:28:06.832Z,17.45
2018-02-15T14:33:45.478Z,15.43
2018-02-15T14:36:13.837Z,15.65
2018-02-15T14:38:42.579Z,15.65
2018-02-15T14:41:10.915Z,17.05
2018-02-15T14:47:10.237Z,16.45
2018-02-15T14:49:38.651Z,15.57
2018-02-15T14:52:13.456Z,17.45
2018-02-15T14:54:41.785Z,17.62
2018-02-15T14:57:10.367Z,16.87
2018-02-15T14:59:38.794Z,17.15
2018-02-15T15:02:37.134Z,19.87
2018-02-15T15:05:05.472Z,16.90
2018-02-15T15:13:55.822Z,17.90
2018-02-15T15:16:34.641Z,17.10
2018-02-15T15:19:03.307Z,16.83
2018-02-15T15:24:42.402Z,17.35
2018-02-15T15:27:11.356Z,17.37
2018-02-15T15:29:52.540Z,17.40
2018-02-15T15:35:13.368Z,16.83
2018-02-15T15:41:22.214Z,17.08
2018-02-15T15:43:50.543Z,16.37
2018-02-15T15:46:18.915Z,17.45
2018-02-15T15:48:47.232Z,18.60
2018-02-15T15:51:15.571Z,16.20
2018-02-15T15:53:53.009Z,16.93
2018-02-15T15:59:09.634Z,17.35
2018-02-15T16:01:37.942Z,15.98
2018-02-15T16:04:22.720Z,18.15
2018-02-15T16:06:53.955Z,17.87
2018-02-15T16:09:23.305Z,17.37
2018-02-15T16:11:51.708Z,15.85
2018-02-15T16:18:19.077Z,17.33
2018-02-15T16:20:47.439Z,15.52
2018-02-15T16:29:56.672Z,16.37
2018-02-15T16:32:38.673Z,18.50
2018-02-15T16:35:07.012Z,16.77
2018-02-15T16:37:35.667Z,18.37
2018-02-15T16:43:22.640Z,15.88
2018-02-15T16:45:51.491Z,17.40
2018-02-15T16:48:19.999Z,18.15
2018-02-15T16:50:48.411Z,16.55
2018-02-15T16:53:16.712Z,16.45
2018-02-15T16:55:45.382Z,15.93
2018-02-15T16:58:13.698Z,15.93
2018-02-15T17:01:21.327Z,18.75
2018-02-15T17:03:50.856Z,16.20
2018-02-15T17:06:19.214Z,17.25
2018-02-15T17:08:47.551Z,17.98
2018-02-15T17:11:15.873Z,16.70
2018-02-15T17:13:44.223Z,17.33
2018-02-15T17:16:12.647Z,18.42
2018-02-15T17:18:41.899Z,14.27
2018-02-15T17:21:29.206Z,17.33
2018-02-15T17:23:57.818Z,15.23
2018-02-15T17:26:28.229Z,14.00
2018-02-15T17:28:56.554Z,16.83
2018-02-15T17:31:24.934Z,15.52
2018-02-15T17:33:53.297Z,16.98
2018-02-15T17:36:21.824Z,16.13
2018-02-15T17:38:50.187Z,17.27
2018-02-15T17:41:24.080Z,15.35
2018-02-15T17:43:52.621Z,16.42
2018-02-15T17:46:27.357Z,17.30
2018-02-15T17:49:21.499Z,14.80
2018-02-15T17:51:49.851Z,17.67
2018-02-15T17:54:38.084Z,14.95
2018-02-15T17:57:06.510Z,15.40
2018-02-15T17:59:35.184Z,17.25
2018-02-15T18:02:03.962Z,17.03
2018-02-15T18:04:32.346Z,17.80
2018-02-15T18:07:00.670Z,15.70
2018-02-15T18:09:29.091Z,14.60
2018-02-15T18:11:57.435Z,16.95
2018-02-15T18:14:25.762Z,14.00
2018-02-15T18:16:56.195Z,17.62
2018-02-15T18:19:51.452Z,16.12
2018-02-15T18:22:20.202Z,15.10
2018-02-15T18:24:54.299Z,17.50
2018-02-15T18:27:22.667Z,14.73
2018-02-15T18:29:54.050Z,16.03
2018-02-15T18:32:24.560Z,15.88
2018-02-15T18:34:52.967Z,17.98
2018-02-15T18:37:41.780Z,13.65
2018-02-15T18:40:10.095Z,13.50
2018-02-15T18:42:38.411Z,15.20
2018-02-15T18:45:10.817Z,14.30
2018-02-15T18:47:39.298Z,15.55
2018-02-15T18:50:16.724Z,14.77
2018-02-15T18:52:45.057Z,14.40
2018-02-15T18:55:13.396Z,15.80
2018-02-15T18:57:42.312Z,18.40
2018-02-15T19:00:10.637Z,15.50
2018-02-15T19:05:48.466Z,16.77
2018-02-15T19:08:17.870Z,15.55
2018-02-15T19:10:47.907Z,15.73
2018-02-15T19:13:16.244Z,16.55
2018-02-15T19:15:44.626Z,17.15
2018-02-15T19:18:13.040Z,16.03
2018-02-15T19:20:41.795Z,15.35
2018-02-15T19:23:40.102Z,16.23
2018-02-15T19:26:08.458Z,14.75
2018-02-15T19:28:36.788Z,16.90
2018-02-15T19:31:05.181Z,15.50
2018-02-15T19:33:33.519Z,15.48
2018-02-15T19:36:01.906Z,16.77
2018-02-15T19:38:30.263Z,15.90
2018-02-15T19:43:58.818Z,15.60
2018-02-15T19:46:27.147Z,17.27
2018-02-15T19:51:55.267Z,16.20
2018-02-15T19:54:23.801Z,17.10
2018-02-15T19:56:52.263Z,15.40
2018-02-15T19:59:21.079Z,16.60
2018-02-15T20:02:10.136Z,16.75
2018-02-15T20:04:38.509Z,15.68
2018-02-15T20:07:06.969Z,15.47
2018-02-15T20:09:35.392Z,16.73
2018-02-15T20:12:03.793Z,16.17
2018-02-15T20:14:32.258Z,14.60
2018-02-15T20:17:00.651Z,17.33
2018-02-15T20:19:58.460Z,18.40
2018-02-15T20:31:36.290Z,15.98
2018-02-15T20:34:22.152Z,17.17
2018-02-15T20:36:50.560Z,16.17
2018-02-15T20:39:24.438Z,19.58
2018-02-15T20:41:56.646Z,17.40
2018-02-15T20:44:27.735Z,17.65
2018-02-15T20:53:14.719Z,16.90
2018-02-15T20:55:53.830Z,19.10
2018-02-15T20:58:38.495Z,18.20
2018-02-15T21:01:06.837Z,19.15
2018-02-15T21:03:35.159Z,18.40
2018-02-15T21:06:03.531Z,21.30
2018-02-15T21:08:32.246Z,19.87
2018-02-15T21:11:00.697Z,18.00
2018-02-15T21:13:29.042Z,17.67
2018-02-15T21:15:57.584Z,18.20
2018-02-15T21:18:26.043Z,19.23
2018-02-15T21:20:54.415Z,20.00
2018-02-15T21:23:22.750Z,19.83
2018-02-15T21:25:51.979Z,21.27
2018-02-15T21:28:24.711Z,22.90
2018-02-15T21:30:53.078Z,21.25
2018-02-15T21:33:22.429Z,22.57
2018-02-15T21:35:50.842Z,21.20
2018-02-15T21:38:19.184Z,20.33
2018-02-15T21:41:04.057Z,18.95
2018-02-15T21:43:32.531Z,21.50
2018-02-15T21:46:00.983Z,20.67
2018-02-15T21:48:32.444Z,22.30
2018-02-15T21:51:01.046Z,18.60
2018-02-15T21:53:29.407Z,20.35
2018-02-15T21:55:57.802Z,18.17
2018-02-15T21:58:27.650Z,18.97
2018-02-15T22:00:56.187Z,20.27
2018-02-15T22:03:24.547Z,23.10
2018-02-15T22:05:52.993Z,22.15
2018-02-15T22:08:21.510Z,17.10
2018-02-15T22:10:50.003Z,21.70
2018-02-15T22:13:18.327Z,21.83
2018-02-15T22:15:46.795Z,21.23
2018-02-15T22:18:15.123Z,20.23
2018-02-15T22:20:43.582Z,21.87
2018-02-15T22:23:12.027Z,22.33
2018-02-15T22:25:41.144Z,23.27
2018-02-15T22:28:09.470Z,19.90
2018-02-15T22:30:37.937Z,22.17
2018-02-15T22:33:06.307Z,21.30
2018-02-15T22:35:34.811Z,18.93
2018-02-15T22:38:03.321Z,22.67
2018-02-15T22:40:31.843Z,18.08
2018-02-15T22:43:00.308Z,16.23
2018-02-15T22:45:28.680Z,19.00
2018-02-15T22:47:57.349Z,19.60
2018-02-15T22:50:25.845Z,17.93
2018-02-15T22:52:54.191Z,16.95
2018-02-15T22:55:36.935Z,17.95
2018-02-15T22:58:06.314Z,18.55
2018-02-15T23:00:34.725Z,19.17
2018-02-15T23:03:03.099Z,18.40
2018-02-15T23:05:31.420Z,19.20
2018-02-15T23:07:59.927Z,18.08
2018-02-15T23:13:28.676Z,18.15
2018-02-15T23:15:57.001Z,18.90
2018-02-15T23:18:25.341Z,17.97
2018-02-15T23:20:53.723Z,19.02
2018-02-15T23:23:22.084Z,19.10
2018-02-15T23:25:50.463Z,18.70
2018-02-15T23:28:18.910Z,20.58
2018-02-15T23:30:47.332Z,19.20
2018-02-15T23:33:15.753Z,20.35
2018-02-15T23:35:44.463Z,18.10
2018-02-15T23:38:12.916Z,18.55
2018-02-15T23:40:41.254Z,17.07
2018-02-15T23:43:09.724Z,18.73
2018-02-15T23:45:38.052Z,18.73
2018-02-15T23:48:06.422Z,18.43
2018-02-15T23:50:43.676Z,19.33
2018-02-15T23:53:12.276Z,18.20
2018-02-15T23:56:08.779Z,18.07
2018-02-15T23:58:37.283Z,18.57
